Daisy Vestry, Mississippi
Current Conditions -  °F | °C
As of 1:53 AM on Friday 28 Nov 2014 (Local Time) from KGPT Reporting Station
Clear Clear  
Wind Chill: 35°   Ceiling: Unl
Heat Index: 39°   Visibility: 10mi
Dew Point: 32°   Wind: 6mph
Humidity: 76%   Direction: 30°NNE
Pressure: 30.42"   Gusts: NA
Location:  30.7239°N, 89.1669°W
Report Text: KGPT 280753Z AUTO 03005KT 10SM CLR 04/00 A3042 RMK AO2 SLP301 T00390000 PNO $
Loading
Personal Weather Stations






























Interactive Weather Map New forecast layout! Learn more

10-Day Weather Forecast

Advertisements
Track Severe Weather on mobile